Time;durP1;ratioP1;P1;durP2;ratioP2;P2;SDS_P1;SDS_P2;PMS_P1;PMS_P2;Temp;Humidity;BMP_temperature;BMP_pressure;BME280_temperature;BME280_humidity;BME280_pressure;Samples;Min_cycle;Max_cycle;Signal;HPM_P1;HPM_P2
2021/07/13 00:01:51;;;;;;;10.30;8.80;;;;;;;;;;4995836;28;20036;-86
2021/07/13 00:04:16;;;;;;;10.15;8.60;;;;;;;;;;4996908;28;20053;-86
2021/07/13 00:06:42;;;;;;;9.68;8.48;;;;;;;;;;4979929;28;20548;-86
2021/07/13 00:09:08;;;;;;;9.45;8.35;;;;;;;;;;4996895;28;20053;-86
2021/07/13 00:11:34;;;;;;;7.88;6.95;;;;;;;;;;5015002;28;20033;-86
2021/07/13 00:13:59;;;;;;;8.27;6.57;;;;;;;;;;5028398;28;20026;-86
2021/07/13 00:16:25;;;;;;;7.63;6.47;;;;;;;;;;4993392;28;20042;-86
2021/07/13 00:18:51;;;;;;;7.28;5.88;;;;;;;;;;5009529;28;20030;-86
2021/07/13 00:21:16;;;;;;;6.10;5.50;;;;;;;;;;4989893;28;20030;-86
2021/07/13 00:23:42;;;;;;;7.85;6.43;;;;;;;;;;5013593;28;20017;-86
2021/07/13 00:26:08;;;;;;;7.78;6.82;;;;;;;;;;5024020;28;20037;-86
2021/07/13 00:28:33;;;;;;;10.27;8.75;;;;;;;;;;5028706;28;20470;-86
2021/07/13 00:30:59;;;;;;;9.63;8.65;;;;;;;;;;4997053;28;20034;-86
2021/07/13 00:33:25;;;;;;;10.80;9.05;;;;;;;;;;5010359;28;20041;-86
2021/07/13 00:35:51;;;;;;;9.90;8.93;;;;;;;;;;4996000;28;20449;-86
2021/07/13 00:38:16;;;;;;;10.10;8.75;;;;;;;;;;5007637;28;20018;-86
2021/07/13 00:40:43;;;;;;;9.45;8.50;;;;;;;;;;5008791;28;20244;-86
2021/07/13 00:43:08;;;;;;;9.02;6.90;;;;;;;;;;5028831;28;20511;-86
2021/07/13 00:45:34;;;;;;;8.57;6.32;;;;;;;;;;4995532;28;20125;-86
2021/07/13 00:47:59;;;;;;;7.38;6.60;;;;;;;;;;5013324;28;20025;-86
2021/07/13 00:50:26;;;;;;;7.85;6.82;;;;;;;;;;5012522;28;20037;-86
2021/07/13 00:52:52;;;;;;;7.60;6.65;;;;;;;;;;5028523;28;20029;-86
2021/07/13 00:55:19;;;;;;;10.00;8.13;;;;;;;;;;5010417;28;20030;-86
2021/07/13 00:57:45;;;;;;;8.15;6.82;;;;;;;;;;5009229;28;20033;-86
2021/07/13 01:00:16;;;;;;;7.82;6.72;;;;;;;;;;5006838;28;20554;-86
2021/07/13 01:02:43;;;;;;;8.77;6.63;;;;;;;;;;5010383;28;20033;-86
2021/07/13 01:05:14;;;;;;;7.68;6.88;;;;;;;;;;5012401;28;20037;-86
2021/07/13 01:07:59;;;;;;;6.90;6.20;;;;;;;;;;5004583;28;20032;-86
2021/07/13 01:10:31;;;;;;;8.30;6.30;;;;;;;;;;5011025;28;20525;-86
2021/07/13 01:13:05;;;;;;;7.35;6.35;;;;;;;;;;5011188;28;20028;-86
2021/07/13 01:15:37;;;;;;;7.43;6.32;;;;;;;;;;5008289;28;20073;-86
2021/07/13 01:18:18;;;;;;;7.53;6.60;;;;;;;;;;5011727;28;20397;-86
2021/07/13 01:21:17;;;;;;;7.55;6.75;;;;;;;;;;5012553;28;20033;-86
2021/07/13 01:24:11;;;;;;;7.38;6.47;;;;;;;;;;5000224;28;20026;-86
2021/07/13 01:26:42;;;;;;;7.85;7.05;;;;;;;;;;5005810;28;21471;-86
2021/07/13 01:29:16;;;;;;;8.48;7.38;;;;;;;;;;5011672;28;20507;-86
2021/07/13 01:31:44;;;;;;;7.72;6.65;;;;;;;;;;5011830;28;20440;-86
2021/07/13 01:34:23;;;;;;;7.32;6.57;;;;;;;;;;5009232;28;20040;-86
2021/07/13 01:36:52;;;;;;;7.20;6.30;;;;;;;;;;5011029;28;20037;-86
2021/07/13 01:39:20;;;;;;;7.13;6.15;;;;;;;;;;5013763;28;20033;-86
2021/07/13 01:41:47;;;;;;;8.43;6.82;;;;;;;;;;5012506;28;20026;-86
2021/07/13 01:44:16;;;;;;;9.45;7.55;;;;;;;;;;5003931;28;20034;-86
2021/07/13 01:46:42;;;;;;;7.38;6.65;;;;;;;;;;5006755;28;20045;-86
2021/07/13 01:49:08;;;;;;;7.78;6.50;;;;;;;;;;5012862;28;20037;-86
2021/07/13 01:51:35;;;;;;;8.85;7.22;;;;;;;;;;5001787;28;20034;-86
2021/07/13 01:54:10;;;;;;;8.02;7.22;;;;;;;;;;5010659;28;20137;-86
2021/07/13 01:56:37;;;;;;;7.95;7.15;;;;;;;;;;4988007;28;20089;-86
2021/07/13 01:59:05;;;;;;;8.90;7.43;;;;;;;;;;5016302;28;20128;-86
2021/07/13 02:01:32;;;;;;;9.30;7.20;;;;;;;;;;4992780;28;20061;-86
2021/07/13 02:03:58;;;;;;;8.75;7.85;;;;;;;;;;5010899;28;20108;-86
2021/07/13 02:06:25;;;;;;;8.48;7.57;;;;;;;;;;5016124;28;20107;-86
2021/07/13 02:08:53;;;;;;;7.93;7.13;;;;;;;;;;5015150;28;20042;-86
2021/07/13 02:11:19;;;;;;;10.30;7.20;;;;;;;;;;5014402;28;20493;-86
2021/07/13 02:13:45;;;;;;;9.60;7.65;;;;;;;;;;5015591;28;20029;-86
2021/07/13 02:16:11;;;;;;;9.00;8.05;;;;;;;;;;5015908;28;20022;-86
2021/07/13 02:18:37;;;;;;;8.80;7.90;;;;;;;;;;4998995;28;20120;-86
2021/07/13 02:21:04;;;;;;;8.98;8.07;;;;;;;;;;4990089;28;20133;-86
2021/07/13 02:23:30;;;;;;;10.38;9.27;;;;;;;;;;5010888;28;20034;-86
2021/07/13 02:25:59;;;;;;;10.20;8.40;;;;;;;;;;4998493;28;20061;-86
2021/07/13 02:28:31;;;;;;;9.18;7.60;;;;;;;;;;5015081;28;20026;-86
2021/07/13 02:31:02;;;;;;;9.23;7.38;;;;;;;;;;5014885;28;20021;-86
2021/07/13 02:33:36;;;;;;;7.97;6.95;;;;;;;;;;5014650;28;20034;-86
2021/07/13 02:36:06;;;;;;;9.48;7.75;;;;;;;;;;5025473;28;20046;-86
2021/07/13 02:38:32;;;;;;;8.15;7.22;;;;;;;;;;5027396;28;20036;-86
2021/07/13 02:40:59;;;;;;;8.73;7.50;;;;;;;;;;4995670;28;20034;-86
2021/07/13 02:43:25;;;;;;;8.98;8.07;;;;;;;;;;5009552;28;20137;-86
2021/07/13 02:45:53;;;;;;;9.57;8.50;;;;;;;;;;4998218;28;20029;-86
2021/07/13 02:48:19;;;;;;;9.82;8.48;;;;;;;;;;5026240;28;20026;-86
2021/07/13 02:50:45;;;;;;;9.43;8.43;;;;;;;;;;5026960;28;20052;-86
2021/07/13 02:53:13;;;;;;;10.00;8.63;;;;;;;;;;5014503;28;20382;-86
2021/07/13 02:55:39;;;;;;;11.82;10.45;;;;;;;;;;5030976;28;20030;-86
2021/07/13 02:58:06;;;;;;;9.38;8.45;;;;;;;;;;5010370;28;20032;-86
2021/07/13 03:00:33;;;;;;;12.63;10.55;;;;;;;;;;4998026;28;20030;-86
2021/07/13 03:02:59;;;;;;;9.70;8.35;;;;;;;;;;5014027;28;20022;-86
2021/07/13 03:05:26;;;;;;;13.50;10.55;;;;;;;;;;5014198;28;20036;-86
2021/07/13 03:07:53;;;;;;;12.13;10.85;;;;;;;;;;4999598;28;20359;-86
2021/07/13 03:10:20;;;;;;;13.05;11.55;;;;;;;;;;4997842;28;20109;-86
2021/07/13 03:12:47;;;;;;;13.15;11.40;;;;;;;;;;4996308;28;20100;-86
2021/07/13 03:15:13;;;;;;;12.40;11.10;;;;;;;;;;5004122;28;20164;-86
2021/07/13 03:17:38;;;;;;;12.88;11.13;;;;;;;;;;4997718;28;20112;-86
2021/07/13 03:20:05;;;;;;;12.25;11.05;;;;;;;;;;5014244;28;20030;-86
2021/07/13 03:22:42;;;;;;;11.13;10.02;;;;;;;;;;5014285;28;20397;-86
2021/07/13 03:25:11;;;;;;;11.68;10.52;;;;;;;;;;5024763;28;20026;-86
2021/07/13 03:27:37;;;;;;;12.38;9.98;;;;;;;;;;5014113;28;20514;-86
2021/07/13 03:30:04;;;;;;;11.55;10.23;;;;;;;;;;5030241;28;20060;-86
2021/07/13 03:32:31;;;;;;;11.80;10.20;;;;;;;;;;4997255;28;20049;-86
2021/07/13 03:34:57;;;;;;;11.60;10.30;;;;;;;;;;5011476;28;20038;-86
2021/07/13 03:37:23;;;;;;;12.20;10.90;;;;;;;;;;4997686;28;20452;-86
2021/07/13 03:39:50;;;;;;;15.48;12.43;;;;;;;;;;5011269;28;20026;-86
2021/07/13 03:42:18;;;;;;;14.38;12.93;;;;;;;;;;4994409;28;20112;-86
2021/07/13 03:44:45;;;;;;;10.82;9.60;;;;;;;;;;5009892;28;20050;-86
2021/07/13 03:47:12;;;;;;;10.93;9.45;;;;;;;;;;5008919;28;20429;-86
2021/07/13 03:49:38;;;;;;;13.82;12.25;;;;;;;;;;5009985;28;20034;-86
2021/07/13 03:52:04;;;;;;;16.45;14.07;;;;;;;;;;5013692;28;20117;-86
2021/07/13 03:54:29;;;;;;;14.75;12.60;;;;;;;;;;5013029;28;20034;-86
2021/07/13 03:56:54;;;;;;;16.35;14.15;;;;;;;;;;4981044;28;20030;-86
2021/07/13 03:59:20;;;;;;;16.83;15.13;;;;;;;;;;4995848;28;20065;-86
2021/07/13 04:01:46;;;;;;;16.38;14.68;;;;;;;;;;5009976;28;20056;-87
2021/07/13 04:04:11;;;;;;;17.17;14.85;;;;;;;;;;5009310;28;20126;-86
2021/07/13 04:06:37;;;;;;;17.60;15.35;;;;;;;;;;5005627;28;20034;-86
2021/07/13 04:09:05;;;;;;;16.25;14.55;;;;;;;;;;5011417;28;20026;-86
2021/07/13 04:11:30;;;;;;;15.80;14.18;;;;;;;;;;5022581;28;20053;-86
2021/07/13 04:13:56;;;;;;;16.30;14.43;;;;;;;;;;5011351;28;20030;-86
2021/07/13 04:16:21;;;;;;;18.98;16.05;;;;;;;;;;4995731;28;20116;-87
2021/07/13 04:18:47;;;;;;;16.60;14.77;;;;;;;;;;5013596;28;20034;-87
2021/07/13 04:21:12;;;;;;;14.15;12.65;;;;;;;;;;5012493;28;20097;-86
2021/07/13 04:23:38;;;;;;;15.70;12.90;;;;;;;;;;5003949;28;20430;-86
2021/07/13 04:26:05;;;;;;;18.10;16.05;;;;;;;;;;4978032;28;20030;-86
2021/07/13 04:28:31;;;;;;;16.23;14.32;;;;;;;;;;5005471;28;20492;-86
2021/07/13 04:31:01;;;;;;;17.67;15.73;;;;;;;;;;5010532;28;20029;-86
2021/07/13 04:33:27;;;;;;;17.80;15.90;;;;;;;;;;5009788;28;20062;-86
2021/07/13 04:35:53;;;;;;;17.27;15.48;;;;;;;;;;4996332;28;20034;-86
2021/07/13 04:38:19;;;;;;;16.45;14.75;;;;;;;;;;5010767;28;20668;-86
2021/07/13 04:40:45;;;;;;;16.85;15.13;;;;;;;;;;5005841;28;20026;-86
2021/07/13 04:43:10;;;;;;;17.77;14.88;;;;;;;;;;5012017;28;20500;-86
2021/07/13 04:45:36;;;;;;;14.65;12.52;;;;;;;;;;4996951;28;20040;-86
2021/07/13 04:48:01;;;;;;;16.40;14.65;;;;;;;;;;5029270;28;20116;-86
2021/07/13 04:50:27;;;;;;;16.58;13.50;;;;;;;;;;5028937;28;20033;-86
2021/07/13 04:52:52;;;;;;;16.45;14.75;;;;;;;;;;4979945;28;20037;-86
2021/07/13 04:55:18;;;;;;;15.13;13.18;;;;;;;;;;5011436;28;20027;-86
2021/07/13 04:57:44;;;;;;;17.17;15.38;;;;;;;;;;4993691;28;20027;-86
2021/07/13 05:00:11;;;;;;;19.08;16.98;;;;;;;;;;5008187;28;21812;-86
2021/07/13 05:02:36;;;;;;;15.23;13.65;;;;;;;;;;4993690;28;20092;-86
2021/07/13 05:05:01;;;;;;;17.02;15.32;;;;;;;;;;4979412;28;20049;-86
2021/07/13 05:07:27;;;;;;;18.75;16.73;;;;;;;;;;5012204;28;20041;-86
2021/07/13 05:09:52;;;;;;;17.52;15.52;;;;;;;;;;5001957;28;20057;-86
2021/07/13 05:12:18;;;;;;;21.33;16.95;;;;;;;;;;4995933;28;20140;-86
2021/07/13 05:14:43;;;;;;;20.58;18.23;;;;;;;;;;5012494;28;20473;-87
2021/07/13 05:17:11;;;;;;;19.77;17.73;;;;;;;;;;4979398;28;20061;-87
2021/07/13 05:19:38;;;;;;;19.70;17.58;;;;;;;;;;4980255;28;20029;-86
2021/07/13 05:22:07;;;;;;;20.58;18.42;;;;;;;;;;5006898;28;20025;-86
2021/07/13 05:24:33;;;;;;;21.23;19.00;;;;;;;;;;5009830;28;20036;-86
2021/07/13 05:26:58;;;;;;;21.40;16.60;;;;;;;;;;4996011;28;20029;-86
2021/07/13 05:29:24;;;;;;;23.27;19.98;;;;;;;;;;5011670;28;20030;-86
2021/07/13 05:31:50;;;;;;;24.52;21.23;;;;;;;;;;5005900;28;20431;-86
2021/07/13 05:34:15;;;;;;;23.15;20.45;;;;;;;;;;5010655;28;20030;-87
2021/07/13 05:36:40;;;;;;;22.80;19.67;;;;;;;;;;5011613;28;20030;-86
2021/07/13 05:39:07;;;;;;;24.38;20.38;;;;;;;;;;5014756;28;20500;-86
2021/07/13 05:41:33;;;;;;;29.30;24.38;;;;;;;;;;5011655;28;20058;-86
2021/07/13 05:43:59;;;;;;;29.75;23.98;;;;;;;;;;5013590;28;20056;-86
2021/07/13 05:46:25;;;;;;;31.23;25.83;;;;;;;;;;5011746;28;20129;-86
2021/07/13 05:48:51;;;;;;;34.47;26.42;;;;;;;;;;5014552;28;20018;-86
2021/07/13 05:51:17;;;;;;;28.88;24.08;;;;;;;;;;5015134;28;20593;-86
2021/07/13 05:53:42;;;;;;;27.77;22.33;;;;;;;;;;5016961;28;20088;-87
2021/07/13 05:56:08;;;;;;;28.98;24.08;;;;;;;;;;5032029;28;20037;-86
2021/07/13 05:58:34;;;;;;;28.88;24.92;;;;;;;;;;5007740;28;20034;-86
2021/07/13 06:01:00;;;;;;;28.02;24.67;;;;;;;;;;4997761;28;20121;-86
2021/07/13 06:03:25;;;;;;;30.63;25.23;;;;;;;;;;5015886;28;20137;-86
2021/07/13 06:05:51;;;;;;;26.88;23.70;;;;;;;;;;4990819;28;20552;-86
2021/07/13 06:08:16;;;;;;;28.17;24.20;;;;;;;;;;5032766;28;20145;-86
2021/07/13 06:10:42;;;;;;;31.13;25.20;;;;;;;;;;5011408;28;20518;-86
2021/07/13 06:13:07;;;;;;;28.38;24.17;;;;;;;;;;5022025;28;20079;-86
2021/07/13 06:15:33;;;;;;;27.33;23.40;;;;;;;;;;4974543;28;20041;-86
2021/07/13 06:17:58;;;;;;;27.40;23.05;;;;;;;;;;5016583;28;20037;-86
2021/07/13 06:20:24;;;;;;;30.08;25.20;;;;;;;;;;5006468;28;20124;-86
2021/07/13 06:22:49;;;;;;;36.72;27.75;;;;;;;;;;5014678;28;20544;-86
2021/07/13 06:25:14;;;;;;;29.50;24.63;;;;;;;;;;5033163;28;20104;-86
2021/07/13 06:27:40;;;;;;;26.67;22.35;;;;;;;;;;5002325;28;20387;-86
2021/07/13 06:30:08;;;;;;;31.63;26.15;;;;;;;;;;5007339;28;20084;-85
2021/07/13 06:32:33;;;;;;;29.95;23.95;;;;;;;;;;5011998;28;20113;-86
2021/07/13 06:34:59;;;;;;;32.17;26.42;;;;;;;;;;5008346;28;20120;-86
2021/07/13 06:37:24;;;;;;;29.30;23.92;;;;;;;;;;5013680;28;20482;-86
2021/07/13 06:39:50;;;;;;;30.17;23.30;;;;;;;;;;5028934;28;20030;-86
2021/07/13 06:42:16;;;;;;;27.75;22.55;;;;;;;;;;5014628;28;20080;-86
2021/07/13 06:44:42;;;;;;;28.65;22.98;;;;;;;;;;5011847;28;20474;-86
2021/07/13 06:47:08;;;;;;;31.63;23.95;;;;;;;;;;5022461;28;20030;-86
2021/07/13 06:49:34;;;;;;;31.75;24.77;;;;;;;;;;5031687;28;20037;-86
2021/07/13 06:51:59;;;;;;;30.95;24.95;;;;;;;;;;5005149;28;20105;-86
2021/07/13 06:54:25;;;;;;;31.20;25.23;;;;;;;;;;5030770;28;20389;-86
2021/07/13 06:56:50;;;;;;;31.00;24.95;;;;;;;;;;4990407;28;20551;-86
2021/07/13 06:59:16;;;;;;;31.75;24.05;;;;;;;;;;5009212;28;20030;-86
2021/07/13 07:01:41;;;;;;;32.67;25.65;;;;;;;;;;5013007;28;20043;-86
2021/07/13 07:04:06;;;;;;;30.27;24.15;;;;;;;;;;5029138;28;20108;-86
2021/07/13 07:06:32;;;;;;;30.17;22.67;;;;;;;;;;5013717;28;20065;-86
2021/07/13 07:08:58;;;;;;;29.10;23.17;;;;;;;;;;5015158;28;20034;-86
2021/07/13 07:11:23;;;;;;;28.75;21.73;;;;;;;;;;5031220;28;20041;-86
2021/07/13 07:13:49;;;;;;;34.58;27.08;;;;;;;;;;5010348;28;20026;-86
2021/07/13 07:16:15;;;;;;;32.28;24.30;;;;;;;;;;5023510;28;20072;-86
2021/07/13 07:18:40;;;;;;;32.88;25.80;;;;;;;;;;5009023;28;20030;-86
2021/07/13 07:21:06;;;;;;;25.85;21.65;;;;;;;;;;5011099;28;20026;-86
2021/07/13 07:23:31;;;;;;;33.70;25.92;;;;;;;;;;4991707;28;20038;-86
2021/07/13 07:25:57;;;;;;;29.45;24.88;;;;;;;;;;4992570;28;20487;-85
2021/07/13 07:28:23;;;;;;;31.80;25.10;;;;;;;;;;5006989;28;20093;-86
2021/07/13 07:30:49;;;;;;;38.97;27.23;;;;;;;;;;4985124;28;20092;-86
2021/07/13 07:33:14;;;;;;;39.17;29.50;;;;;;;;;;5004719;28;20401;-87
2021/07/13 07:35:40;;;;;;;32.15;23.73;;;;;;;;;;5009425;28;20129;-87
2021/07/13 07:38:05;;;;;;;35.17;27.60;;;;;;;;;;5011489;28;20025;-87
2021/07/13 07:40:31;;;;;;;32.88;24.60;;;;;;;;;;5011320;28;20030;-87
2021/07/13 07:42:58;;;;;;;39.95;27.63;;;;;;;;;;4994586;28;20753;-87
2021/07/13 07:45:24;;;;;;;46.42;31.83;;;;;;;;;;5026340;28;20033;-87
2021/07/13 07:47:51;;;;;;;38.38;29.75;;;;;;;;;;5002123;28;20420;-87
2021/07/13 07:50:18;;;;;;;42.92;29.88;;;;;;;;;;4994142;28;20030;-87
2021/07/13 07:52:44;;;;;;;43.70;31.40;;;;;;;;;;5027051;28;20030;-87
2021/07/13 07:55:11;;;;;;;41.38;30.10;;;;;;;;;;5026796;28;20049;-87
2021/07/13 07:57:37;;;;;;;44.88;33.13;;;;;;;;;;5011296;28;20057;-87
2021/07/13 08:00:07;;;;;;;40.53;31.10;;;;;;;;;;5025841;28;20057;-87
2021/07/13 08:02:33;;;;;;;45.92;32.15;;;;;;;;;;4993657;28;20030;-87
2021/07/13 08:05:00;;;;;;;37.63;28.23;;;;;;;;;;5000723;28;20409;-86
2021/07/13 08:07:26;;;;;;;39.70;30.27;;;;;;;;;;4993528;28;20034;-85
2021/07/13 08:09:51;;;;;;;40.38;30.35;;;;;;;;;;5011763;28;20073;-86
2021/07/13 08:12:17;;;;;;;52.22;38.60;;;;;;;;;;5006290;28;20061;-87
2021/07/13 08:14:42;;;;;;;39.05;29.60;;;;;;;;;;5009330;28;20402;-86
2021/07/13 08:17:08;;;;;;;39.33;28.95;;;;;;;;;;4992015;28;20236;-86
2021/07/13 08:19:38;;;;;;;33.85;26.20;;;;;;;;;;4992705;28;20038;-86
2021/07/13 08:22:07;;;;;;;41.95;30.17;;;;;;;;;;4988044;28;20045;-85
2021/07/13 08:24:34;;;;;;;34.75;27.45;;;;;;;;;;5003385;28;20534;-85
2021/07/13 08:26:59;;;;;;;35.42;27.05;;;;;;;;;;5003344;28;20378;-85
2021/07/13 08:29:25;;;;;;;33.35;26.08;;;;;;;;;;5010417;28;20033;-85
2021/07/13 08:31:56;;;;;;;36.33;28.52;;;;;;;;;;4985428;28;20044;-85
2021/07/13 08:34:22;;;;;;;37.67;28.05;;;;;;;;;;5004004;28;20709;-85
2021/07/13 08:36:47;;;;;;;33.58;25.73;;;;;;;;;;5007510;28;20111;-85
2021/07/13 08:39:12;;;;;;;35.20;26.83;;;;;;;;;;4992540;28;20164;-85
2021/07/13 08:41:38;;;;;;;38.00;28.10;;;;;;;;;;5008042;28;20036;-85
2021/07/13 08:44:05;;;;;;;34.45;27.95;;;;;;;;;;4998207;28;20026;-85
2021/07/13 08:46:32;;;;;;;38.38;29.60;;;;;;;;;;5008736;28;20034;-85
2021/07/13 08:49:02;;;;;;;35.42;27.02;;;;;;;;;;5018139;28;20038;-85
2021/07/13 08:51:28;;;;;;;40.63;30.02;;;;;;;;;;5007302;28;20047;-85
2021/07/13 08:53:54;;;;;;;38.85;28.55;;;;;;;;;;5008034;28;20514;-85
2021/07/13 08:56:19;;;;;;;38.20;27.88;;;;;;;;;;5023128;28;20488;-86
2021/07/13 08:58:45;;;;;;;37.20;28.02;;;;;;;;;;5007268;28;20037;-85
2021/07/13 09:01:11;;;;;;;37.05;26.17;;;;;;;;;;5008190;28;20036;-85
2021/07/13 09:04:06;;;;;;;37.88;28.08;;;;;;;;;;5005065;28;20022;-85
2021/07/13 09:07:01;;;;;;;38.20;28.35;;;;;;;;;;5025248;28;20037;-85
2021/07/13 09:09:31;;;;;;;37.92;27.52;;;;;;;;;;5006133;28;20033;-85
2021/07/13 09:12:17;;;;;;;44.28;31.63;;;;;;;;;;5009414;28;20033;-86
2021/07/13 09:15:00;;;;;;;31.15;23.25;;;;;;;;;;5005691;28;20064;-85
2021/07/13 09:17:33;;;;;;;31.70;23.65;;;;;;;;;;5017131;28;20494;-85
2021/07/13 09:20:07;;;;;;;28.20;21.50;;;;;;;;;;5023923;28;20167;-85
2021/07/13 09:22:33;;;;;;;30.25;22.75;;;;;;;;;;5024053;28;20030;-86
2021/07/13 09:24:58;;;;;;;29.10;22.75;;;;;;;;;;5024858;28;20025;-86
2021/07/13 09:27:24;;;;;;;26.15;19.50;;;;;;;;;;5007710;28;20060;-86
2021/07/13 09:29:52;;;;;;;26.42;19.60;;;;;;;;;;5023323;28;20111;-86
2021/07/13 09:32:22;;;;;;;29.25;23.05;;;;;;;;;;5006200;28;20060;-86
2021/07/13 09:34:54;;;;;;;27.20;21.58;;;;;;;;;;5019290;28;20478;-86
2021/07/13 09:37:22;;;;;;;23.77;18.80;;;;;;;;;;5022503;28;20037;-86
2021/07/13 09:40:06;;;;;;;27.92;21.42;;;;;;;;;;5006193;28;20037;-86
2021/07/13 09:42:35;;;;;;;27.88;21.23;;;;;;;;;;5005166;28;20036;-86
2021/07/13 09:45:28;;;;;;;22.35;18.23;;;;;;;;;;5002544;28;20057;-86
2021/07/13 09:47:56;;;;;;;27.73;22.02;;;;;;;;;;5021270;28;20054;-86
2021/07/13 09:50:39;;;;;;;27.52;21.35;;;;;;;;;;5001984;28;20081;-86
2021/07/13 09:53:07;;;;;;;23.27;18.48;;;;;;;;;;5005079;28;20029;-86
2021/07/13 09:55:32;;;;;;;26.35;20.40;;;;;;;;;;5023743;28;20069;-86
2021/07/13 09:58:27;;;;;;;28.10;20.58;;;;;;;;;;5018572;28;20061;-86
2021/07/13 10:00:58;;;;;;;25.58;21.10;;;;;;;;;;4986384;28;20108;-86
2021/07/13 10:03:29;;;;;;;24.60;19.98;;;;;;;;;;5025132;28;20033;-86
2021/07/13 10:05:57;;;;;;;25.85;20.17;;;;;;;;;;5024300;28;20134;-86
2021/07/13 10:08:25;;;;;;;24.00;20.70;;;;;;;;;;5024623;28;20093;-87
2021/07/13 10:10:51;;;;;;;25.33;20.70;;;;;;;;;;4992511;28;20112;-86
2021/07/13 10:13:17;;;;;;;23.33;18.75;;;;;;;;;;5003214;28;20455;-86
2021/07/13 10:15:49;;;;;;;22.15;18.50;;;;;;;;;;5024765;28;20025;-86
2021/07/13 10:18:15;;;;;;;21.25;17.88;;;;;;;;;;5004781;28;20033;-86
2021/07/13 10:20:42;;;;;;;35.92;25.30;;;;;;;;;;5004107;28;20024;-85
2021/07/13 10:23:10;;;;;;;25.77;20.73;;;;;;;;;;5006691;28;20141;-85
2021/07/13 10:25:42;;;;;;;27.55;21.42;;;;;;;;;;5004777;28;20026;-85
2021/07/13 10:28:10;;;;;;;28.10;20.85;;;;;;;;;;5024431;28;20022;-86
2021/07/13 10:30:38;;;;;;;30.73;22.05;;;;;;;;;;5014285;28;20026;-86
2021/07/13 10:33:27;;;;;;;30.60;24.02;;;;;;;;;;5014266;28;20473;-85
2021/07/13 10:35:53;;;;;;;30.35;23.25;;;;;;;;;;5034061;28;20029;-84
2021/07/13 10:38:23;;;;;;;26.58;20.15;;;;;;;;;;5030932;28;20033;-85
2021/07/13 10:40:51;;;;;;;24.45;19.33;;;;;;;;;;5007666;28;20041;-85
2021/07/13 10:43:27;;;;;;;29.77;22.77;;;;;;;;;;4998881;28;20041;-84
2021/07/13 10:46:09;;;;;;;28.33;21.27;;;;;;;;;;5031630;28;20026;-85
2021/07/13 10:48:35;;;;;;;27.02;20.95;;;;;;;;;;5026989;28;20497;-84
2021/07/13 10:51:07;;;;;;;27.08;21.23;;;;;;;;;;5026111;28;20183;-85
2021/07/13 10:53:39;;;;;;;33.75;25.73;;;;;;;;;;4995741;28;20125;-84
2021/07/13 10:56:06;;;;;;;30.10;22.52;;;;;;;;;;4993281;28;20037;-85
2021/07/13 10:58:35;;;;;;;30.08;22.77;;;;;;;;;;5012001;28;20029;-84
2021/07/13 11:01:14;;;;;;;27.60;20.85;;;;;;;;;;5011881;28;20034;-84
2021/07/13 11:03:39;;;;;;;33.55;23.13;;;;;;;;;;5027656;28;20041;-85
2021/07/13 11:06:08;;;;;;;29.10;22.63;;;;;;;;;;5028174;28;20042;-84
2021/07/13 11:08:47;;;;;;;35.40;26.20;;;;;;;;;;5027301;28;20025;-84
2021/07/13 11:11:18;;;;;;;25.58;20.08;;;;;;;;;;5012525;28;20030;-85
2021/07/13 11:13:52;;;;;;;29.40;21.80;;;;;;;;;;5030917;28;20033;-85
2021/07/13 11:16:31;;;;;;;31.20;24.27;;;;;;;;;;5016885;28;20030;-85
2021/07/13 11:18:59;;;;;;;27.55;21.90;;;;;;;;;;5000512;28;20034;-84
2021/07/13 11:21:27;;;;;;;25.60;20.38;;;;;;;;;;5029001;28;20036;-85
2021/07/13 11:23:56;;;;;;;26.15;20.60;;;;;;;;;;5029494;28;20026;-85
2021/07/13 11:26:26;;;;;;;29.30;22.83;;;;;;;;;;5010213;28;20041;-84
2021/07/13 11:29:00;;;;;;;24.23;20.13;;;;;;;;;;5015911;28;20021;-85
2021/07/13 11:31:29;;;;;;;23.17;19.02;;;;;;;;;;5011081;28;20152;-85
2021/07/13 11:34:14;;;;;;;23.17;18.30;;;;;;;;;;5013124;28;20037;-85
2021/07/13 11:36:53;;;;;;;22.27;18.83;;;;;;;;;;5011770;28;20034;-85
2021/07/13 11:39:30;;;;;;;31.00;20.35;;;;;;;;;;5011324;28;20508;-85
2021/07/13 11:42:06;;;;;;;24.25;17.38;;;;;;;;;;5025730;28;20033;-85
2021/07/13 11:44:32;;;;;;;20.75;17.25;;;;;;;;;;5010740;28;20030;-85
2021/07/13 11:47:01;;;;;;;21.42;16.65;;;;;;;;;;5011790;28;20568;-85
2021/07/13 11:49:32;;;;;;;21.80;18.25;;;;;;;;;;4994336;28;20038;-84
2021/07/13 11:52:06;;;;;;;19.27;16.80;;;;;;;;;;5006900;28;20386;-85
2021/07/13 11:54:34;;;;;;;24.35;19.35;;;;;;;;;;5027698;28;20115;-85
2021/07/13 11:57:01;;;;;;;25.92;19.35;;;;;;;;;;5010532;28;20034;-85
2021/07/13 11:59:29;;;;;;;27.27;19.98;;;;;;;;;;5010805;28;20029;-84
2021/07/13 12:02:00;;;;;;;21.92;17.15;;;;;;;;;;5027243;28;20398;-84
2021/07/13 12:04:28;;;;;;;26.95;22.15;;;;;;;;;;5008332;28;21411;-85
2021/07/13 12:06:59;;;;;;;25.45;20.30;;;;;;;;;;5009488;28;20046;-84
2021/07/13 12:09:35;;;;;;;26.05;20.27;;;;;;;;;;5004231;28;20029;-85
2021/07/13 12:12:12;;;;;;;23.70;19.23;;;;;;;;;;4987842;28;20026;-85
2021/07/13 12:14:40;;;;;;;26.17;20.92;;;;;;;;;;5007506;28;20030;-85
2021/07/13 12:17:06;;;;;;;26.85;21.45;;;;;;;;;;5001547;28;20034;-85
2021/07/13 12:19:33;;;;;;;36.88;27.05;;;;;;;;;;4997096;28;20037;-85
2021/07/13 12:22:11;;;;;;;32.08;23.45;;;;;;;;;;5008773;28;20044;-85
2021/07/13 12:24:38;;;;;;;38.58;27.00;;;;;;;;;;5023134;28;20022;-85
2021/07/13 12:27:12;;;;;;;35.75;26.98;;;;;;;;;;5005185;28;20156;-86
2021/07/13 12:29:46;;;;;;;30.73;24.50;;;;;;;;;;5000274;28;20044;-87
2021/07/13 12:32:26;;;;;;;33.58;25.60;;;;;;;;;;5008649;28;20060;-87
2021/07/13 12:34:53;;;;;;;33.45;25.38;;;;;;;;;;5004337;28;20030;-86
2021/07/13 12:37:21;;;;;;;34.78;27.05;;;;;;;;;;5004488;28;20115;-86
2021/07/13 12:39:49;;;;;;;34.00;27.63;;;;;;;;;;5010385;28;20563;-84
2021/07/13 12:42:26;;;;;;;32.60;25.92;;;;;;;;;;4997755;28;20614;-84
2021/07/13 12:44:53;;;;;;;32.50;25.80;;;;;;;;;;5020708;28;20379;-84
2021/07/13 12:47:33;;;;;;;29.42;23.77;;;;;;;;;;5027548;28;20444;-84
2021/07/13 12:50:05;;;;;;;33.97;24.27;;;;;;;;;;5027966;28;20029;-84
2021/07/13 12:52:34;;;;;;;39.78;29.80;;;;;;;;;;5012768;28;20056;-84
2021/07/13 12:55:03;;;;;;;40.97;29.52;;;;;;;;;;5012821;28;20033;-84
2021/07/13 12:57:30;;;;;;;40.53;29.67;;;;;;;;;;5016857;28;20560;-84
2021/07/13 13:00:06;;;;;;;43.28;31.15;;;;;;;;;;5022703;28;20056;-84
2021/07/13 13:02:32;;;;;;;34.90;26.17;;;;;;;;;;5003076;28;20952;-84
2021/07/13 13:04:58;;;;;;;42.13;31.17;;;;;;;;;;5005947;28;20069;-85
2021/07/13 13:07:24;;;;;;;39.15;29.27;;;;;;;;;;5007847;28;20038;-84
2021/07/13 13:09:50;;;;;;;37.03;28.27;;;;;;;;;;5004904;28;20053;-84
2021/07/13 13:12:18;;;;;;;41.97;30.23;;;;;;;;;;4988496;28;20040;-83
2021/07/13 13:14:45;;;;;;;35.40;27.08;;;;;;;;;;5004413;28;20046;-85
2021/07/13 13:17:12;;;;;;;32.95;24.73;;;;;;;;;;5007286;28;20144;-84
2021/07/13 13:19:42;;;;;;;34.47;27.00;;;;;;;;;;5003218;28;20474;-85
2021/07/13 13:22:08;;;;;;;35.40;27.70;;;;;;;;;;5006514;28;20433;-85
2021/07/13 13:24:35;;;;;;;27.15;22.08;;;;;;;;;;5000493;28;20133;-84
2021/07/13 13:27:03;;;;;;;35.33;25.88;;;;;;;;;;5007972;28;20033;-84
2021/07/13 13:29:30;;;;;;;38.97;26.67;;;;;;;;;;5003047;28;20084;-85
2021/07/13 13:31:55;;;;;;;29.05;23.60;;;;;;;;;;5002674;28;20040;-85
2021/07/13 13:34:23;;;;;;;38.03;27.88;;;;;;;;;;5004985;28;20046;-85
2021/07/13 13:36:49;;;;;;;28.98;23.67;;;;;;;;;;5004588;28;20052;-85
2021/07/13 13:39:15;;;;;;;30.35;24.95;;;;;;;;;;4991911;28;20445;-85
2021/07/13 13:41:45;;;;;;;32.17;24.17;;;;;;;;;;5021556;28;20030;-85
2021/07/13 13:44:11;;;;;;;32.38;22.90;;;;;;;;;;5020277;28;20021;-85
2021/07/13 13:46:37;;;;;;;27.23;21.23;;;;;;;;;;5007508;28;20032;-85
2021/07/13 13:49:03;;;;;;;26.27;20.80;;;;;;;;;;5006165;28;20038;-85
2021/07/13 13:51:28;;;;;;;33.65;22.58;;;;;;;;;;5020553;28;20038;-85
2021/07/13 13:53:55;;;;;;;31.20;24.52;;;;;;;;;;5006245;28;20454;-85
2021/07/13 13:56:21;;;;;;;31.60;23.50;;;;;;;;;;4969169;28;20048;-85
2021/07/13 13:58:47;;;;;;;26.17;20.63;;;;;;;;;;5010708;28;20121;-85
2021/07/13 14:01:15;;;;;;;23.90;20.05;;;;;;;;;;5025766;28;20030;-85
2021/07/13 14:03:41;;;;;;;29.27;22.80;;;;;;;;;;5002670;28;20026;-85
2021/07/13 14:06:07;;;;;;;27.27;21.77;;;;;;;;;;5027058;28;20095;-86
2021/07/13 14:08:35;;;;;;;28.77;22.17;;;;;;;;;;5010401;28;20037;-85
2021/07/13 14:11:01;;;;;;;28.38;21.55;;;;;;;;;;5026722;28;20026;-85
2021/07/13 14:13:27;;;;;;;28.02;22.17;;;;;;;;;;5009504;28;20037;-85
2021/07/13 14:15:56;;;;;;;26.52;21.05;;;;;;;;;;5010450;28;20452;-85
2021/07/13 14:18:23;;;;;;;25.60;20.73;;;;;;;;;;5000887;28;20733;-85
2021/07/13 14:20:50;;;;;;;25.73;20.52;;;;;;;;;;5010002;28;20476;-85
2021/07/13 14:23:16;;;;;;;25.23;20.90;;;;;;;;;;5009441;28;20033;-85
2021/07/13 14:25:42;;;;;;;20.13;17.50;;;;;;;;;;5026047;28;20026;-85
2021/07/13 14:28:08;;;;;;;21.67;18.00;;;;;;;;;;4992303;28;20030;-85